Miguel Gomez

Olheiro-Chefe - Guarani
25 Fev 2027
Quinta-feira
Processo

Personalidade

Adaptabilidade (9) Ambição (5) Controvérsia (17) Lealdade (4) Pressão (15) Profissionalismo (17) Espírito Esportivo (4) Temperamento (14)

Perfil

Estilo de Treinamento Democrático
Licença Continental A
Determinação 9
Gestão de Pessoas 4
Motivação 4
Disciplina 5
Satisfação no Trabalho
49%
Fadiga
0%
Função Olheiro-Chefe
Salário 32.1K p/s
Contrato 14.03.2029

Desempenho

Comportamento Normal
Eficácia do Treinamento
20%
Desenvolvimento do Jogador
45%
Prevenção de Lesões
55%
Implementação Tática
60%

Eventos Recentes

Participou de uma reunião de recrutamento agora
Participou de uma reunião de recrutamento 7d atrás
Participou de uma reunião de recrutamento 7d atrás
Participou de uma reunião de recrutamento 7d atrás
Observou uma partida 7d atrás
Participou de uma reunião de recrutamento 14d atrás
Participou de uma reunião de recrutamento 14d atrás
Observou uma partida 14d atrás

Monitorando agora

130
Jogador Clube Status Habilidade Confiança Observado Última observação Último voto
Bosun Lawal Stoke City Ativo 141 / 121 40% 1 28.12.2026 -
Flynn Downes Southampton Ativo 130 / 125 40% 1 28.12.2026 -
Lucas González Sportivo Trinidense Ativo 105 / 110 55% 1 14.12.2026 -
Luis de la Cruz Sportivo Trinidense Perdido 102 / 115 55% 1 02.12.2026 -
Giovanni Cantizano Rosario Central Ativo 103 / 119 40% 1 01.12.2026 -
Valentino Acuña Newell's Old Boys Ativo 110 / 114 40% 1 01.12.2026 -
Christian Krasnodar Ativo 149 / 141 40% 2 30.11.2026 -
Diego Hormigo Granada Ativo 127 / 105 40% 1 30.11.2026 -
Sergio Arribas Almería Ativo 126 / 138 40% 5 29.11.2026 Observar
Ousseynou Seck Randers Ativo 95 / 132 40% 1 29.11.2026 -
Sidiki Chérif Coventry City Ativo 113 / 133 40% 1 29.11.2026 -
Rodrigo Bogarín Barracas Central Ativo 117 / 119 40% 1 29.11.2026 -
Alex Vigo Independiente Rivadavia Ativo 108 / 114 40% 2 28.11.2026 -
Alan Lescano Argentinos Juniors Ativo 135 / 126 40% 1 28.11.2026 Mais informações
Ramiro Ruiz Rodríguez Atlético Tucumán Ativo 120 / 123 40% 4 26.11.2026 -
Loum Tchaouna Coventry City Ativo 155 / 147 40% 1 26.11.2026 Mais informações
Georginio Rutter Brighton Ativo 146 / 151 40% 1 25.11.2026 Mais informações
Keagan Mothiba SuperSport United Ativo 102 / 113 40% 2 24.11.2026 -
Renzo Tesuri Atlético Tucumán Ativo 120 / 127 40% 1 24.11.2026 -
Carlos Vicente Birmingham Ativo 135 / 136 40% 1 23.11.2026 Mais informações
Antony Alonso Deportivo Riestra Ativo 115 / 126 40% 1 22.11.2026 -
Ignacio Lago Colón Ativo 117 / 110 40% 1 20.11.2026 -
Rubén Duarte Legia Ativo 127 / 118 40% 3 19.11.2026 -
Keagan Mokoena Free State Stars Ativo 103 / 90 40% 1 19.11.2026 Mais informações
Nazareno Kihm Ferro Carril Oeste Ativo 120 / 123 40% 1 18.11.2026 -
Todd Cantwell Blackburn Rovers Ativo 132 / 124 40% 1 16.11.2026 Mais informações
Mandla Erasmus SuperSport United Ativo 132 / 122 40% 1 16.11.2026 -
Alex Luna Instituto Ativo 117 / 132 40% 1 15.11.2026 -
Alejandro Melo Cibalia Ativo 122 / 114 40% 5 14.11.2026 -
Claudio Bravo Argentinos Juniors Ativo 111 / 123 40% 2 14.11.2026 -
Lewis Morgan SuperSport United Ativo 128 / 131 40% 2 13.11.2026 -
Joaquín Gho Argentinos Juniors Ativo 115 / 118 40% 2 13.11.2026 Mais informações
Agustín Fernández NK Zavrc Ativo 90 / 95 40% 3 12.11.2026 -
Alexei Dominguez Pachuca Ativo 110 / 104 40% 2 12.11.2026 -
Aarón Molinas Defensa y Justicia Ativo 123 / 121 40% 2 12.11.2026 -
Santiago González Tigre Ativo 125 / 130 40% 2 12.11.2026 -
Alan Coria Defensa y Justicia Ativo 96 / 105 40% 3 09.11.2026 -
Nikolay Zlatev Cherno More Ativo 115 / 93 40% 1 09.11.2026 -
Santiago Rodríguez Gimnasia y Esgrima Ativo 119 / 113 40% 1 07.11.2026 -
Franco Cristaldo Talleres Perdido 131 / 129 40% 5 06.11.2026 -
Horacio Tijanovich Central Córdoba SdE Ativo 114 / 111 40% 1 06.11.2026 -
Fernando Gorriarán Tigres Ativo 141 / 130 40% 4 05.11.2026 -
Fernando Martínez Central Córdoba SdE Ativo 113 / 121 40% 1 03.11.2026 -
Matías Viguet Maipú Ativo 105 / 115 40% 1 03.11.2026 -
Matías Fernández Independiente Rivadavia Ativo 112 / 128 40% 1 02.11.2026 -
Hansel Zapata Botev Plovdiv Ativo 107 / 113 40% 2 01.11.2026 -
Enzo Acosta Estudiantes Ativo 121 / 115 40% 1 31.10.2026 -
Hernán de la Fuente Instituto Ativo 129 / 123 40% 1 31.10.2026 -
Francisco González Metilli Belgrano Ativo 115 / 127 40% 3 30.10.2026 -
Miguel Castillo La Equidad Ativo 134 / 134 40% 4 30.10.2026 -
Nahuel Banegas Tigre Ativo 111 / 113 40% 1 29.10.2026 -
Manuel Rodríguez Millonarios Ativo 92 / 89 40% 1 28.10.2026 -
Dilan Godoy Vélez Ativo 114 / 123 40% 1 28.10.2026 Mais informações
Santiago Rosales Mitre Ativo 109 / 111 40% 1 28.10.2026 -
Gabriel Jesus Barcelona Ativo 167 / 163 40% 2 27.10.2026 -
Adrián Spörle Belgrano Ativo 118 / 118 40% 1 25.10.2026 -
Tshepang Moremi Orlando Pirates Ativo 107 / 105 40% 1 23.10.2026 -
Matías Pellegrini Vélez Ativo 113 / 120 40% 4 22.10.2026 -
Lukáš Červ Viktoria Plzen Ativo 141 / 119 40% 1 22.10.2026 -
Marek Sestak FK Senica Ativo 111 / 104 40% 1 21.10.2026 -
Juergen Elitím Bohemians 1905 Ativo 125 / 114 40% 1 21.10.2026 -
Santiago Sandoval Guadalajara Ativo 87 / 90 40% 1 19.10.2026 -
Youssoufa Moukoko FC Copenhagen Ativo 118 / 138 40% 1 19.10.2026 -
Mariano Bracamonte Deportivo Riestra Ativo 120 / 124 40% 5 18.10.2026 -
Sergio Reguilón Inter Miami CF Ativo 145 / 130 40% 2 18.10.2026 -
Mateo Silvetti Inter Miami CF Ativo 112 / 133 40% 2 15.10.2026 -
Thiago Salischiker Rucci HNK Vukovar 1991 Ativo 74 / 94 40% 1 13.10.2026 -
Thulani Erasmus Platinum Stars Ativo 107 / 102 40% 1 13.10.2026 -
Thiago Ponce Rosario Central Ativo 99 / 104 40% 1 11.10.2026 -
Claudio Villagra Volos NPS Ativo 118 / 116 40% 1 11.10.2026 -
Joaquín Pereyra Estudiantes Ativo 100 / 95 40% 1 09.10.2026 -
Brais Méndez Columbus Crew Ativo 160 / 152 40% 2 04.10.2026 -
Kelvin Yeboah Minnesota United FC Ativo 125 / 129 40% 1 02.10.2026 -
Gonzalo Escudero Racing Club Ativo 110 / 106 40% 1 02.10.2026 -
Tomás Chancalay Minnesota United FC Ativo 115 / 120 40% 1 30.09.2026 -
Ryan Gauld Vancouver Whitecaps Ativo 140 / 130 40% 1 29.09.2026 -
José Paradela Cruz Azul Ativo 148 / 136 40% 1 29.09.2026 -
Bénie Traoré New York City Ativo 114 / 119 40% 2 28.09.2026 -
Alex Woiski Deportivo Tachira Ativo 81 / 102 40% 1 28.09.2026 -
Antonio Galeano Remo Stars Ativo 134 / 114 40% 1 25.09.2026 -
Denis Bouanga Los Angeles Football Club Ativo 126 / 140 40% 1 25.09.2026 -
Agustín Seyral Sarmiento Ativo 90 / 93 40% 1 25.09.2026 -
Martín Ortega Atlético Tucumán Ativo 82 / 94 40% 1 22.09.2026 -
Jonás Luna Santa Clara Ativo 113 / 119 40% 1 22.09.2026 -
Antony Portland Timbers Ativo 139 / 137 40% 3 19.09.2026 -
Juan Camilo Pérez Carabobo Ativo 112 / 122 40% 1 17.09.2026 -
Lucas Souto Defensa y Justicia Ativo 118 / 116 40% 2 15.09.2026 -
Santiago Rodríguez Columbus Crew Ativo 132 / 128 40% 1 14.09.2026 -
Ezekiel Kwame Alladoh Philadelphia Union Ativo 108 / 113 40% 1 14.09.2026 -
Gerardo Valenzuela FC Cincinnati Ativo 108 / 102 40% 1 14.09.2026 -
Ian Escobar Vélez Ativo 86 / 89 40% 1 12.09.2026 -
Jens Petter Hauge Bodo/Glimt Ativo 153 / 137 40% 1 11.09.2026 -
Riqui Puig LA Galaxy Ativo 138 / 139 40% 2 10.09.2026 -
Marcelo Saracchi Houston Dynamo Ativo 131 / 120 40% 1 05.09.2026 -
Franco Domínguez Ávila Estudiantes Ativo 80 / 101 40% 1 05.09.2026 -
Camilo Rey Domenech Boca Juniors Ativo 113 / 124 40% 1 02.09.2026 -
Ricky Atletico Venezuela Ativo 86 / 106 40% 1 02.09.2026 -
Tomás González Piast Ativo 128 / 106 40% 1 29.08.2026 -
Ralph Orquin Seattle Sounders Ativo 117 / 120 40% 1 29.08.2026 -
Paul Arriola Seattle Sounders Ativo 124 / 123 40% 1 28.08.2026 -
Martín Garnerone Estudiantes Ativo 110 / 112 40% 1 28.08.2026 -
Joshua Carabajal Barracas Central Ativo 86 / 89 40% 1 28.08.2026 -
Román Albornoz Temperley Ativo 76 / 93 40% 1 27.08.2026 -
Joaquín Toranzo Sarmiento Ativo 81 / 92 40% 1 27.08.2026 -
Mario García Racing Santander Ativo 126 / 110 40% 2 24.08.2026 -
Andy Polo Universitario Ativo 117 / 124 40% 1 23.08.2026 -
Breel Embolo Atlanta United FC Ativo 132 / 130 40% 1 23.08.2026 -
Jairo Concha Universitario Ativo 118 / 114 40% 1 22.08.2026 -
Gerson Barreto Cienciano Ativo 115 / 116 40% 1 22.08.2026 -
Santiago Luján Huracán Ativo 112 / 112 40% 1 21.08.2026 -
Myrto Uzuni Austin FC Ativo 122 / 127 40% 1 21.08.2026 -
Lucciano Reinoso Caracas Ativo 80 / 100 40% 1 19.08.2026 -
Pavel Bucha FC Cincinnati Ativo 127 / 137 40% 1 19.08.2026 -
Carlos Sosa Carabobo Ativo 116 / 118 40% 1 18.08.2026 -
Paolo Reyna Universitario Ativo 108 / 120 40% 1 18.08.2026 -
Román Zalazar Nueva Chicago Ativo 98 / 96 40% 1 16.08.2026 -
Nazareno Roselli Defensa y Justicia Ativo 111 / 114 40% 1 16.08.2026 -
Tomás Romero Unión de Santa Fe Ativo 94 / 109 40% 2 14.08.2026 -
Hugo Ancajima Universitario Ativo 117 / 117 40% 1 14.08.2026 -
Luca Castillo Ferro Carril Oeste Ativo 97 / 98 40% 1 13.08.2026 -
Santiago Sosa Yung Sevilla Ativo 120 / 122 40% 1 13.08.2026 -
Justin-Noël Kalumba Mallorca Ativo 127 / 126 40% 2 10.08.2026 -
Francisco Silva Temperley Ativo 79 / 87 40% 1 10.08.2026 -
Jhamir D'Arrigo Melgar Ativo 126 / 122 40% 1 09.08.2026 -
Sebastián González Caracas Ativo 68 / 87 40% 1 07.08.2026 -
Alan Cantero Alianza Lima Ativo 112 / 117 40% 1 04.08.2026 -
Lucas Chavez Boca Juniors Ativo 65 / 76 40% 1 04.08.2026 -
Oussama Idrissi Pachuca Ativo 131 / 130 40% 1 02.08.2026 -
Álex Berenguer Athletic Bilbao Ativo 157 / 147 40% 1 01.08.2026 -
Marcos Llorente Atlético Madrid Ativo 146 / 148 40% 1 01.08.2026 -